LA Tri Club Race Results - 2011
Santa Barbara Triathlon Long Course 
August 27, 2011  --  Santa Barbara, CA
1 Mile Swim, 34 Mile Bike, 10 Mile Run
        Overall   Div   Swim   Bike   Run
Obs Bib # Name City Rank Ttl Time Div Place Time Rank T1 Time O'all  t2 Time O'all 
1 1428 Patrick Hartman Valencia, CA 12 3:11:50 M Master 2 0:24:24 12 0:01:29 1:37:56 39 0:01:38 0.47431 14
2 1284 Oliver Martin Los Angeles, CA 14 3:12:48 M45-49 1 0:28:41 92 0:01:26 1:32:06 7 0:01:17 1:09:18 34
3 1219 Dusty Nabor Westlake Village, CA 15 3:12:58 M35-39 4 0:25:22 23 0:01:27 1:35:16 22 0:01:21 1:08:32 38
4 1196 Bodie Olmos Venice, CA 23 3:15:24 M35-39 7 0:27:43 69 0:01:40 1:37:12 35 0:01:26 1:07:23 22
5 1101 Jamie Silber Santa Monica, CA 60 3:28:15 M Masters 3 0:29:24 114 0:01:15 1:41:42 82 0:01:28 1:14:26 68
6 1621 Peter Brantley Playa del Rey, CA 81 3:32:25 M40-44 10 0:36:02 380 0:01:28 1:45:31 147 0:02:22 1:07:02 20
7 1689 Marvin Suntonvipart Playa del Rey, CA 94 3:34:47 M35-39 15 0:37:09 413 0:01:39 1:43:57 117 0:01:59 1:10:03 42
8 1069 Jennifer Temperley Manhattan Beach, CA 110 3:37:55 W35-39 1 0:26:44 43 0:01:41 1:50:33 215 0:01:10 1:14:47 118
9 1513 Liza Dunham Santa Monica, CA 120 3:40:21 W40-44 2 0:30:34 159 0:01:32 1:48:09 182 0:02:02 1:18:04 121
10 1394 Robert Husser Topanga, CA 132 3:42:35 M50-54 7 0:33:42 291 0:01:49 1:43:27 111 0:02:20 1:31:17 170
11 1322 Mike Levy Marina del Rey, CA 133 3:42:36 M30-34 22 0:29:18 109 0:01:58 1:49:16 199 0:01:41 1:20:27 155
12 1662 Jorge Balbas Los Angeles, CA 142 3:43:33 M40-44 22 0:29:12 108 0:03:13 1:48:09 183 0:02:04 1:20:55 164
13 1132 Anneka Sakovich Manhattan Beach, CA 169 3:46:40 W35-39 3 0:22:51 5 0:02:00 1:53:10 266 0:01:00 1:27:39 283
14 1109 John Serpa Goleta, CA 218 3:51:18 M40-44 33 0:31:56 232 0:02:00 1:49:30 202 0:01:37 1:26:15 262
15 1095 Garlin Smith Redondo Beach, CA 219 3:51:20 M45-49 24 0:31:51 228 0:02:17 1:51:00 225 0:02:50 1:23:22 210
16 1641 Kevin Berg Northridge, CA 222 3:51:29 M50-54 11 0:30:11 140 0:02:44 1:47:05 172 0:01:00 1:30:29 324
17 1222 Brian Murphy Harbor City, CA 254 3:56:45 M35-39 41 0L33:59 302 0:01:48 1:49:39 204 0:01:55 1:29:24 307
18 1278 Chris Mason Playa del Rey, CA 285 4:01:22 M35-39 46 0:31:02 185 0:02:24 1:55:07 303 0:02:39 1:30:10 319
19 1135 William Rustrum Los Angeles, CA 314 4:05:40 M40-44 50 0:31:42 218 0:01:29 1:58:40 365 0:02:01 1:31:48 340
20 1547 Alison De Lucca Los Angeles, CA 342 4:09:30 W35-39 12 0:29:03 103 0:02:04 2:05:46 445 0:02:19 1:30:18 322
21 1681 Nicola Albini Santa Monica, CA 347 4:10:57 M40-44 57 0:34:19 315 0:03:42 1:57:11 342 0:02:31 1:33:14 360
22 1179 Don Parks Granda Hills, CA 354 4:12:08 M40-44 58 0:34:06 307 0:02:20 1:52:01 246 0:02:38 1:41:03 445
23 1366 Paul Keltner Santa Monica, CA 357 4:13:03 M40-44 60 0:34:45 325 0:03:04 1:58:34 361 0:04:00 1:32:40 351
24 1550 Renata D'Angelo Torrance, CA 373 4:15:33 W35-39 16 0:35:34 360 0:02:21 2:04:14 424 0:01:04 1:32:20 346
25 1584 Jenni Carlson Los Angeles, CA 384 4:16:59 W40-44 16 0:26:51 50 0:02:34 2:05:07 437 0:01:41 1:40:46 442
26 1570 John Clarke Manhattan Beach, CA 402 4:21:09 M65-59 2 0:36:51 406 0:05:05 2:06:01 448 0:02:32 1:30:20 323
27 1378 Nancy Johnston Thousand Oaks, CA 421 4:24:29 W50-54 8 0:33:47 294 0:01:39 1:59:18 374 0:01:20 1:48:23 501
28 1458 Craig Glick Westlake Village, CA 437 4:27:56 M50-54 31 0:32:02 236 0:01:34 1:56:07 328 0:02:10 1:56:03 533
29 1581 Lisa Cheney Manhattan Beach, CA 456 4:31:50 W45-49 11 0:40:00 487 0:02:24 2:08:09 462 0:01:12 1:40:03 435
30 1120 Michelle Sayre Manhattan Beach, CA 457 4:31:54 W35-39 20 0:32:31 254 0:01:39 2:08:16 449 0:03:11 1:48:14 496
31 1251 Christopher Menjou Torrance, CA 461 4:33:33 Clydes 12 0:27:46 71 0:02:25 2:03:33 419 0:02:42 1:57:07 538
32 1348 Jennifer Kramer Santa Monica, CA 466 4:34:59 W35-39 21 0:39:07 468 0:03:49 2:11:05 481 0:02:23 1:38:35 420
33 1055 Michelle Veenstra Northridge, CA 476 4:37:14 W50-54 13 0:43:56 538 0:04:02 2:07:34 457 0:01:31 1:40:11 437
34 1090 Jonathan Stein Los Angeles, CA 508 4:47:11 M50-54 31 0:33:57 300 0:03:53 2:07:36 458 0:01:52 1:59:53 549
35 1465 Barbara Giaimo Los Angeles, CA 512 4:49:15 W25-29 16 0:38:59 466 0:03:12 2:10:51 479 0:02:15 1:53:58 525
36 1759 Dawn McCrory Marina del Rey, CA 515 4:51:09 W50-54 15 0:38:38 456 0:03:53 2:15:08 513 0:02:13 1:51:17 510
37 1232 Susan Moon Pacific Palisades, CA 519 4:52:46 W45-49 13 0:50:00 564 0:02:24 2:19:41 538 0:02:25 1:38:16 415
38 1316 Kevin Litam Glendale, CA 533 4:57:48 M25-29 33 0:43:14 531 0:03:32 2:08:11 463 0:04:21 1:58:30 542
39 1618 Cynthia Breene Los Angeles, CA 545 5:10:24 W25-29 17 0:36:43 404 0:02:34 2:26:20 551 0:03:39 2:01:08 553
40 1665 Karen Aydelott San Luis Obispo, CA 555 5:21:00 W65-69 1 0:35:44 364 0:04:25 2:05:40 443 0:06:29 2:28:43 577
41 1450 Rachel Griffin Los Angeles, CA 568 5:35:06 W30-34 28 0:41:37 512 0:04:51 2:39:04 572 0:02:32 2:07:02 566
questions about race results? Email RaceResults@LATriClub.com